sensor_id;sensor_type;location;lat;lon;timestamp;P1;durP1;ratioP1;P2;durP2;ratioP2
56517;SDS011;42419;48.760;2.322;2023-05-29T00:01:59;6.10;;;4.97;;
56517;SDS011;42419;48.760;2.322;2023-05-29T00:04:24;7.00;;;4.40;;
56517;SDS011;42419;48.760;2.322;2023-05-29T00:06:52;5.10;;;4.60;;
56517;SDS011;42419;48.760;2.322;2023-05-29T00:09:18;8.10;;;5.00;;
56517;SDS011;42419;48.760;2.322;2023-05-29T00:11:43;5.37;;;4.50;;
56517;SDS011;42419;48.760;2.322;2023-05-29T00:14:12;5.70;;;4.50;;
56517;SDS011;42419;48.760;2.322;2023-05-29T00:16:39;6.80;;;4.97;;
56517;SDS011;42419;48.760;2.322;2023-05-29T00:19:04;5.40;;;4.90;;
56517;SDS011;42419;48.760;2.322;2023-05-29T00:21:30;5.70;;;4.63;;
56517;SDS011;42419;48.760;2.322;2023-05-29T00:23:55;5.67;;;4.90;;
56517;SDS011;42419;48.760;2.322;2023-05-29T00:26:21;4.97;;;4.47;;
56517;SDS011;42419;48.760;2.322;2023-05-29T00:28:46;6.03;;;4.43;;
56517;SDS011;42419;48.760;2.322;2023-05-29T00:31:12;5.73;;;4.80;;
56517;SDS011;42419;48.760;2.322;2023-05-29T00:33:37;5.20;;;4.23;;
56517;SDS011;42419;48.760;2.322;2023-05-29T00:36:03;4.83;;;4.30;;
56517;SDS011;42419;48.760;2.322;2023-05-29T00:38:28;4.80;;;4.30;;
56517;SDS011;42419;48.760;2.322;2023-05-29T00:40:53;4.57;;;4.17;;
56517;SDS011;42419;48.760;2.322;2023-05-29T00:43:19;6.43;;;5.07;;
56517;SDS011;42419;48.760;2.322;2023-05-29T00:45:45;5.33;;;4.50;;
56517;SDS011;42419;48.760;2.322;2023-05-29T00:48:10;7.57;;;4.70;;
56517;SDS011;42419;48.760;2.322;2023-05-29T00:50:36;5.07;;;4.57;;
56517;SDS011;42419;48.760;2.322;2023-05-29T00:53:01;6.53;;;5.07;;
56517;SDS011;42419;48.760;2.322;2023-05-29T00:55:29;5.00;;;4.50;;
56517;SDS011;42419;48.760;2.322;2023-05-29T00:57:55;5.40;;;4.90;;
56517;SDS011;42419;48.760;2.322;2023-05-29T01:00:20;4.83;;;4.20;;
56517;SDS011;42419;48.760;2.322;2023-05-29T01:02:46;4.77;;;4.17;;
56517;SDS011;42419;48.760;2.322;2023-05-29T01:05:12;4.80;;;4.10;;
56517;SDS011;42419;48.760;2.322;2023-05-29T01:07:39;4.60;;;4.10;;
56517;SDS011;42419;48.760;2.322;2023-05-29T01:10:05;4.87;;;4.40;;
56517;SDS011;42419;48.760;2.322;2023-05-29T01:12:44;5.97;;;4.40;;
56517;SDS011;42419;48.760;2.322;2023-05-29T01:28:44;4.57;;;4.17;;
56517;SDS011;42419;48.760;2.322;2023-05-29T01:31:13;4.53;;;4.10;;
56517;SDS011;42419;48.760;2.322;2023-05-29T01:33:41;4.90;;;3.97;;
56517;SDS011;42419;48.760;2.322;2023-05-29T01:36:07;3.93;;;3.50;;
56517;SDS011;42419;48.760;2.322;2023-05-29T01:38:34;5.90;;;5.23;;
56517;SDS011;42419;48.760;2.322;2023-05-29T01:40:59;7.10;;;4.53;;
56517;SDS011;42419;48.760;2.322;2023-05-29T01:43:25;5.33;;;4.70;;
56517;SDS011;42419;48.760;2.322;2023-05-29T01:45:51;6.77;;;5.10;;
56517;SDS011;42419;48.760;2.322;2023-05-29T01:48:17;5.63;;;5.03;;
56517;SDS011;42419;48.760;2.322;2023-05-29T01:50:42;5.10;;;4.17;;
56517;SDS011;42419;48.760;2.322;2023-05-29T01:53:09;5.53;;;4.30;;
56517;SDS011;42419;48.760;2.322;2023-05-29T01:55:34;4.60;;;4.20;;
56517;SDS011;42419;48.760;2.322;2023-05-29T01:58:00;6.10;;;4.77;;
56517;SDS011;42419;48.760;2.322;2023-05-29T02:00:27;4.53;;;3.80;;
56517;SDS011;42419;48.760;2.322;2023-05-29T02:02:54;4.90;;;4.03;;
56517;SDS011;42419;48.760;2.322;2023-05-29T02:05:19;5.80;;;4.67;;
56517;SDS011;42419;48.760;2.322;2023-05-29T02:07:46;4.60;;;4.20;;
56517;SDS011;42419;48.760;2.322;2023-05-29T02:10:12;4.50;;;4.10;;
56517;SDS011;42419;48.760;2.322;2023-05-29T02:12:37;6.53;;;5.10;;
56517;SDS011;42419;48.760;2.322;2023-05-29T02:15:02;5.67;;;5.03;;
56517;SDS011;42419;48.760;2.322;2023-05-29T02:17:28;4.77;;;4.27;;
56517;SDS011;42419;48.760;2.322;2023-05-29T02:19:53;6.00;;;4.30;;
56517;SDS011;42419;48.760;2.322;2023-05-29T02:22:19;4.23;;;3.83;;
56517;SDS011;42419;48.760;2.322;2023-05-29T02:24:44;6.03;;;4.00;;
56517;SDS011;42419;48.760;2.322;2023-05-29T02:27:09;4.90;;;4.20;;
56517;SDS011;42419;48.760;2.322;2023-05-29T02:29:35;4.63;;;4.10;;
56517;SDS011;42419;48.760;2.322;2023-05-29T02:32:00;5.13;;;4.63;;
56517;SDS011;42419;48.760;2.322;2023-05-29T02:34:26;5.00;;;4.40;;
56517;SDS011;42419;48.760;2.322;2023-05-29T02:36:51;5.47;;;4.60;;
56517;SDS011;42419;48.760;2.322;2023-05-29T02:39:17;4.37;;;3.97;;
56517;SDS011;42419;48.760;2.322;2023-05-29T02:41:43;6.13;;;4.23;;
56517;SDS011;42419;48.760;2.322;2023-05-29T02:44:08;4.23;;;3.80;;
56517;SDS011;42419;48.760;2.322;2023-05-29T02:46:34;4.67;;;4.20;;
56517;SDS011;42419;48.760;2.322;2023-05-29T02:48:59;4.30;;;3.90;;
56517;SDS011;42419;48.760;2.322;2023-05-29T02:51:24;4.33;;;3.93;;
56517;SDS011;42419;48.760;2.322;2023-05-29T02:53:50;4.43;;;3.97;;
56517;SDS011;42419;48.760;2.322;2023-05-29T02:56:15;4.07;;;3.67;;
56517;SDS011;42419;48.760;2.322;2023-05-29T02:58:41;4.73;;;4.20;;
56517;SDS011;42419;48.760;2.322;2023-05-29T03:01:07;4.87;;;4.40;;
56517;SDS011;42419;48.760;2.322;2023-05-29T03:03:32;4.50;;;4.10;;
56517;SDS011;42419;48.760;2.322;2023-05-29T03:05:58;4.90;;;4.17;;
56517;SDS011;42419;48.760;2.322;2023-05-29T03:08:24;4.43;;;4.03;;
56517;SDS011;42419;48.760;2.322;2023-05-29T03:10:50;5.87;;;4.00;;
56517;SDS011;42419;48.760;2.322;2023-05-29T03:13:17;5.60;;;4.23;;
56517;SDS011;42419;48.760;2.322;2023-05-29T03:15:43;4.83;;;4.43;;
56517;SDS011;42419;48.760;2.322;2023-05-29T03:18:09;4.50;;;4.10;;
56517;SDS011;42419;48.760;2.322;2023-05-29T03:20:34;4.47;;;3.90;;
56517;SDS011;42419;48.760;2.322;2023-05-29T03:23:00;3.80;;;3.50;;
56517;SDS011;42419;48.760;2.322;2023-05-29T03:25:25;4.73;;;4.33;;
56517;SDS011;42419;48.760;2.322;2023-05-29T03:27:50;5.97;;;4.27;;
56517;SDS011;42419;48.760;2.322;2023-05-29T03:30:16;5.27;;;4.77;;
56517;SDS011;42419;48.760;2.322;2023-05-29T03:32:41;5.20;;;4.20;;
56517;SDS011;42419;48.760;2.322;2023-05-29T03:35:07;4.77;;;4.07;;
56517;SDS011;42419;48.760;2.322;2023-05-29T03:37:32;3.90;;;3.60;;
56517;SDS011;42419;48.760;2.322;2023-05-29T03:39:58;4.60;;;4.10;;
56517;SDS011;42419;48.760;2.322;2023-05-29T03:42:23;5.20;;;4.30;;
56517;SDS011;42419;48.760;2.322;2023-05-29T03:44:48;5.13;;;4.00;;
56517;SDS011;42419;48.760;2.322;2023-05-29T03:47:16;5.20;;;3.70;;
56517;SDS011;42419;48.760;2.322;2023-05-29T03:49:41;4.80;;;3.93;;
56517;SDS011;42419;48.760;2.322;2023-05-29T03:52:07;3.60;;;3.30;;
56517;SDS011;42419;48.760;2.322;2023-05-29T03:54:32;4.93;;;4.43;;
56517;SDS011;42419;48.760;2.322;2023-05-29T03:56:58;4.13;;;3.73;;
56517;SDS011;42419;48.760;2.322;2023-05-29T03:59:23;4.13;;;3.73;;
56517;SDS011;42419;48.760;2.322;2023-05-29T04:01:48;4.27;;;3.87;;
56517;SDS011;42419;48.760;2.322;2023-05-29T04:04:16;4.50;;;4.10;;
56517;SDS011;42419;48.760;2.322;2023-05-29T04:06:41;4.93;;;4.13;;
56517;SDS011;42419;48.760;2.322;2023-05-29T04:09:07;5.37;;;3.93;;
56517;SDS011;42419;48.760;2.322;2023-05-29T04:11:34;5.27;;;3.73;;
56517;SDS011;42419;48.760;2.322;2023-05-29T04:14:00;5.40;;;4.10;;
56517;SDS011;42419;48.760;2.322;2023-05-29T04:16:26;3.60;;;3.30;;
56517;SDS011;42419;48.760;2.322;2023-05-29T04:18:52;4.10;;;3.70;;
56517;SDS011;42419;48.760;2.322;2023-05-29T04:21:17;6.17;;;4.67;;
56517;SDS011;42419;48.760;2.322;2023-05-29T04:23:43;5.00;;;4.23;;
56517;SDS011;42419;48.760;2.322;2023-05-29T04:26:08;5.53;;;4.20;;
56517;SDS011;42419;48.760;2.322;2023-05-29T04:28:33;4.60;;;4.10;;
56517;SDS011;42419;48.760;2.322;2023-05-29T04:30:59;4.50;;;4.10;;
56517;SDS011;42419;48.760;2.322;2023-05-29T04:33:25;3.70;;;3.30;;
56517;SDS011;42419;48.760;2.322;2023-05-29T04:35:54;3.90;;;3.60;;
56517;SDS011;42419;48.760;2.322;2023-05-29T04:38:20;4.27;;;3.90;;
56517;SDS011;42419;48.760;2.322;2023-05-29T04:40:50;4.10;;;3.70;;
56517;SDS011;42419;48.760;2.322;2023-05-29T04:43:16;4.10;;;3.70;;
56517;SDS011;42419;48.760;2.322;2023-05-29T04:45:41;4.73;;;4.13;;
56517;SDS011;42419;48.760;2.322;2023-05-29T04:48:07;4.80;;;3.40;;
56517;SDS011;42419;48.760;2.322;2023-05-29T04:50:33;5.30;;;3.97;;
56517;SDS011;42419;48.760;2.322;2023-05-29T04:52:59;4.50;;;4.10;;
56517;SDS011;42419;48.760;2.322;2023-05-29T04:55:24;4.60;;;4.10;;
56517;SDS011;42419;48.760;2.322;2023-05-29T04:57:50;5.33;;;3.83;;
56517;SDS011;42419;48.760;2.322;2023-05-29T05:00:16;4.50;;;4.10;;
56517;SDS011;42419;48.760;2.322;2023-05-29T05:02:43;4.57;;;3.70;;
56517;SDS011;42419;48.760;2.322;2023-05-29T05:05:09;5.30;;;3.70;;
56517;SDS011;42419;48.760;2.322;2023-05-29T05:07:35;6.10;;;4.10;;
56517;SDS011;42419;48.760;2.322;2023-05-29T05:10:02;4.50;;;3.70;;
56517;SDS011;42419;48.760;2.322;2023-05-29T05:12:28;5.20;;;3.60;;
56517;SDS011;42419;48.760;2.322;2023-05-29T05:14:53;4.00;;;3.60;;
56517;SDS011;42419;48.760;2.322;2023-05-29T05:17:19;3.60;;;3.30;;
56517;SDS011;42419;48.760;2.322;2023-05-29T05:19:45;4.50;;;4.10;;
56517;SDS011;42419;48.760;2.322;2023-05-29T05:22:10;4.30;;;3.90;;
56517;SDS011;42419;48.760;2.322;2023-05-29T05:24:36;5.03;;;3.87;;
56517;SDS011;42419;48.760;2.322;2023-05-29T05:27:01;4.13;;;3.73;;
56517;SDS011;42419;48.760;2.322;2023-05-29T05:29:26;3.73;;;3.43;;
56517;SDS011;42419;48.760;2.322;2023-05-29T05:31:52;5.17;;;4.10;;
56517;SDS011;42419;48.760;2.322;2023-05-29T05:34:17;3.90;;;3.50;;
56517;SDS011;42419;48.760;2.322;2023-05-29T05:36:42;4.57;;;3.50;;
56517;SDS011;42419;48.760;2.322;2023-05-29T05:39:08;5.20;;;4.17;;
56517;SDS011;42419;48.760;2.322;2023-05-29T05:41:33;5.20;;;3.43;;
56517;SDS011;42419;48.760;2.322;2023-05-29T05:43:58;4.60;;;3.93;;
56517;SDS011;42419;48.760;2.322;2023-05-29T05:46:25;4.20;;;3.80;;
56517;SDS011;42419;48.760;2.322;2023-05-29T05:48:50;5.27;;;3.70;;
56517;SDS011;42419;48.760;2.322;2023-05-29T05:51:16;5.90;;;4.30;;
56517;SDS011;42419;48.760;2.322;2023-05-29T05:53:42;4.20;;;3.47;;
56517;SDS011;42419;48.760;2.322;2023-05-29T05:56:07;4.53;;;3.93;;
56517;SDS011;42419;48.760;2.322;2023-05-29T05:58:32;3.77;;;3.47;;
56517;SDS011;42419;48.760;2.322;2023-05-29T06:01:01;4.97;;;3.80;;
56517;SDS011;42419;48.760;2.322;2023-05-29T06:03:26;4.27;;;3.87;;
56517;SDS011;42419;48.760;2.322;2023-05-29T06:05:52;6.83;;;3.80;;
56517;SDS011;42419;48.760;2.322;2023-05-29T06:08:19;6.47;;;3.80;;
56517;SDS011;42419;48.760;2.322;2023-05-29T06:10:44;4.63;;;3.77;;
56517;SDS011;42419;48.760;2.322;2023-05-29T06:13:09;5.50;;;3.90;;
56517;SDS011;42419;48.760;2.322;2023-05-29T06:15:35;6.80;;;4.17;;
56517;SDS011;42419;48.760;2.322;2023-05-29T06:18:00;5.53;;;3.70;;
56517;SDS011;42419;48.760;2.322;2023-05-29T06:20:26;5.50;;;3.77;;
56517;SDS011;42419;48.760;2.322;2023-05-29T06:22:51;5.63;;;4.10;;
56517;SDS011;42419;48.760;2.322;2023-05-29T06:25:17;4.47;;;4.07;;
56517;SDS011;42419;48.760;2.322;2023-05-29T06:27:44;5.30;;;4.50;;
56517;SDS011;42419;48.760;2.322;2023-05-29T06:30:10;4.47;;;3.57;;
56517;SDS011;42419;48.760;2.322;2023-05-29T06:32:36;4.80;;;3.90;;
56517;SDS011;42419;48.760;2.322;2023-05-29T06:35:01;7.03;;;3.93;;
56517;SDS011;42419;48.760;2.322;2023-05-29T06:37:27;7.13;;;4.50;;
56517;SDS011;42419;48.760;2.322;2023-05-29T06:39:52;5.00;;;4.50;;
56517;SDS011;42419;48.760;2.322;2023-05-29T06:42:17;5.80;;;4.33;;
56517;SDS011;42419;48.760;2.322;2023-05-29T06:44:43;5.00;;;4.43;;
56517;SDS011;42419;48.760;2.322;2023-05-29T06:47:08;8.63;;;4.30;;
56517;SDS011;42419;48.760;2.322;2023-05-29T06:49:33;6.20;;;4.50;;
56517;SDS011;42419;48.760;2.322;2023-05-29T06:51:59;5.40;;;4.50;;
56517;SDS011;42419;48.760;2.322;2023-05-29T06:54:25;6.07;;;4.87;;
56517;SDS011;42419;48.760;2.322;2023-05-29T06:56:50;5.77;;;4.60;;
56517;SDS011;42419;48.760;2.322;2023-05-29T06:59:15;6.10;;;4.83;;
56517;SDS011;42419;48.760;2.322;2023-05-29T07:01:41;6.30;;;4.40;;
56517;SDS011;42419;48.760;2.322;2023-05-29T07:04:06;7.50;;;5.20;;
56517;SDS011;42419;48.760;2.322;2023-05-29T07:06:32;6.03;;;5.03;;
56517;SDS011;42419;48.760;2.322;2023-05-29T07:08:58;8.10;;;4.70;;
56517;SDS011;42419;48.760;2.322;2023-05-29T07:11:23;6.60;;;5.17;;
56517;SDS011;42419;48.760;2.322;2023-05-29T07:13:50;6.93;;;4.70;;
56517;SDS011;42419;48.760;2.322;2023-05-29T07:16:15;6.40;;;5.00;;
56517;SDS011;42419;48.760;2.322;2023-05-29T07:18:41;6.67;;;5.00;;
56517;SDS011;42419;48.760;2.322;2023-05-29T07:21:06;5.40;;;4.33;;
56517;SDS011;42419;48.760;2.322;2023-05-29T07:23:32;10.50;;;5.27;;
56517;SDS011;42419;48.760;2.322;2023-05-29T07:25:57;10.30;;;5.40;;
56517;SDS011;42419;48.760;2.322;2023-05-29T07:28:23;7.17;;;5.40;;
56517;SDS011;42419;48.760;2.322;2023-05-29T07:30:48;5.17;;;4.00;;
56517;SDS011;42419;48.760;2.322;2023-05-29T07:33:13;5.00;;;4.00;;
56517;SDS011;42419;48.760;2.322;2023-05-29T07:35:39;6.27;;;5.00;;
56517;SDS011;42419;48.760;2.322;2023-05-29T07:38:04;14.30;;;5.37;;
56517;SDS011;42419;48.760;2.322;2023-05-29T07:40:30;7.57;;;5.20;;
56517;SDS011;42419;48.760;2.322;2023-05-29T07:42:55;6.30;;;5.23;;
56517;SDS011;42419;48.760;2.322;2023-05-29T07:45:20;5.93;;;4.87;;
56517;SDS011;42419;48.760;2.322;2023-05-29T07:47:46;6.20;;;4.90;;
56517;SDS011;42419;48.760;2.322;2023-05-29T07:50:13;6.40;;;4.50;;
56517;SDS011;42419;48.760;2.322;2023-05-29T07:52:39;6.80;;;5.13;;
56517;SDS011;42419;48.760;2.322;2023-05-29T07:55:05;6.23;;;5.30;;
56517;SDS011;42419;48.760;2.322;2023-05-29T07:57:30;5.50;;;5.00;;
56517;SDS011;42419;48.760;2.322;2023-05-29T07:59:56;7.73;;;5.37;;
56517;SDS011;42419;48.760;2.322;2023-05-29T08:02:21;6.60;;;5.07;;
56517;SDS011;42419;48.760;2.322;2023-05-29T08:04:46;6.00;;;5.00;;
56517;SDS011;42419;48.760;2.322;2023-05-29T08:07:12;5.73;;;4.77;;
56517;SDS011;42419;48.760;2.322;2023-05-29T08:09:37;7.03;;;4.63;;
56517;SDS011;42419;48.760;2.322;2023-05-29T08:12:03;8.20;;;5.33;;
56517;SDS011;42419;48.760;2.322;2023-05-29T08:14:28;7.50;;;5.70;;
56517;SDS011;42419;48.760;2.322;2023-05-29T08:16:54;11.47;;;5.87;;
56517;SDS011;42419;48.760;2.322;2023-05-29T08:19:19;11.00;;;5.30;;
56517;SDS011;42419;48.760;2.322;2023-05-29T08:21:45;6.77;;;5.57;;
56517;SDS011;42419;48.760;2.322;2023-05-29T08:24:10;7.43;;;5.03;;
56517;SDS011;42419;48.760;2.322;2023-05-29T08:26:36;9.40;;;5.23;;
56517;SDS011;42419;48.760;2.322;2023-05-29T08:29:04;8.93;;;6.17;;
56517;SDS011;42419;48.760;2.322;2023-05-29T08:31:30;13.57;;;5.67;;
56517;SDS011;42419;48.760;2.322;2023-05-29T08:33:56;6.30;;;5.30;;
56517;SDS011;42419;48.760;2.322;2023-05-29T08:36:24;8.23;;;5.30;;
56517;SDS011;42419;48.760;2.322;2023-05-29T08:38:50;11.93;;;5.50;;
56517;SDS011;42419;48.760;2.322;2023-05-29T08:41:28;9.93;;;6.10;;
56517;SDS011;42419;48.760;2.322;2023-05-29T08:44:06;7.40;;;5.47;;
56517;SDS011;42419;48.760;2.322;2023-05-29T08:46:32;6.63;;;5.63;;
56517;SDS011;42419;48.760;2.322;2023-05-29T08:48:59;7.23;;;4.80;;
56517;SDS011;42419;48.760;2.322;2023-05-29T08:51:27;8.33;;;5.90;;
56517;SDS011;42419;48.760;2.322;2023-05-29T08:53:56;7.70;;;5.90;;
56517;SDS011;42419;48.760;2.322;2023-05-29T08:56:22;5.90;;;5.30;;
56517;SDS011;42419;48.760;2.322;2023-05-29T08:58:48;6.93;;;4.97;;
56517;SDS011;42419;48.760;2.322;2023-05-29T09:01:13;6.57;;;5.20;;
56517;SDS011;42419;48.760;2.322;2023-05-29T09:03:42;5.73;;;5.20;;
56517;SDS011;42419;48.760;2.322;2023-05-29T09:06:07;6.13;;;4.90;;
56517;SDS011;42419;48.760;2.322;2023-05-29T09:08:33;8.47;;;5.40;;
56517;SDS011;42419;48.760;2.322;2023-05-29T09:11:00;8.87;;;5.20;;
56517;SDS011;42419;48.760;2.322;2023-05-29T09:13:25;6.30;;;5.33;;
56517;SDS011;42419;48.760;2.322;2023-05-29T09:15:56;6.17;;;5.13;;
56517;SDS011;42419;48.760;2.322;2023-05-29T09:18:29;12.40;;;5.80;;
56517;SDS011;42419;48.760;2.322;2023-05-29T09:20:56;6.13;;;5.10;;
56517;SDS011;42419;48.760;2.322;2023-05-29T09:23:22;9.77;;;5.70;;
56517;SDS011;42419;48.760;2.322;2023-05-29T09:25:51;5.80;;;5.20;;
56517;SDS011;42419;48.760;2.322;2023-05-29T09:28:17;5.40;;;4.63;;
56517;SDS011;42419;48.760;2.322;2023-05-29T09:30:44;7.50;;;5.40;;
56517;SDS011;42419;48.760;2.322;2023-05-29T09:33:12;6.77;;;4.90;;
56517;SDS011;42419;48.760;2.322;2023-05-29T09:35:41;10.20;;;5.63;;
56517;SDS011;42419;48.760;2.322;2023-05-29T09:38:08;6.10;;;4.63;;
56517;SDS011;42419;48.760;2.322;2023-05-29T09:40:35;6.97;;;5.40;;
56517;SDS011;42419;48.760;2.322;2023-05-29T09:45:43;6.90;;;5.17;;
56517;SDS011;42419;48.760;2.322;2023-05-29T09:48:14;5.67;;;4.90;;
56517;SDS011;42419;48.760;2.322;2023-05-29T09:50:43;6.40;;;5.50;;
56517;SDS011;42419;48.760;2.322;2023-05-29T09:53:16;6.60;;;4.90;;
56517;SDS011;42419;48.760;2.322;2023-05-29T09:55:44;6.70;;;5.43;;
56517;SDS011;42419;48.760;2.322;2023-05-29T09:58:11;6.43;;;5.00;;
56517;SDS011;42419;48.760;2.322;2023-05-29T10:00:39;5.93;;;5.33;;
56517;SDS011;42419;48.760;2.322;2023-05-29T10:03:05;5.83;;;5.33;;
56517;SDS011;42419;48.760;2.322;2023-05-29T10:05:30;6.27;;;5.67;;
56517;SDS011;42419;48.760;2.322;2023-05-29T10:07:56;7.57;;;4.80;;
56517;SDS011;42419;48.760;2.322;2023-05-29T10:10:24;6.10;;;4.37;;
56517;SDS011;42419;48.760;2.322;2023-05-29T10:12:52;6.27;;;5.17;;
56517;SDS011;42419;48.760;2.322;2023-05-29T10:15:18;6.50;;;5.03;;
56517;SDS011;42419;48.760;2.322;2023-05-29T10:18:07;5.57;;;5.07;;
56517;SDS011;42419;48.760;2.322;2023-05-29T10:20:37;9.33;;;4.80;;
56517;SDS011;42419;48.760;2.322;2023-05-29T10:23:03;6.73;;;5.70;;
56517;SDS011;42419;48.760;2.322;2023-05-29T10:25:29;5.70;;;5.20;;
56517;SDS011;42419;48.760;2.322;2023-05-29T10:27:56;5.90;;;5.10;;
56517;SDS011;42419;48.760;2.322;2023-05-29T10:35:44;8.33;;;5.77;;
56517;SDS011;42419;48.760;2.322;2023-05-29T10:38:13;6.37;;;5.80;;
56517;SDS011;42419;48.760;2.322;2023-05-29T10:40:44;6.83;;;6.13;;
56517;SDS011;42419;48.760;2.322;2023-05-29T10:45:55;7.43;;;6.40;;
56517;SDS011;42419;48.760;2.322;2023-05-29T10:50:53;9.57;;;6.50;;
56517;SDS011;42419;48.760;2.322;2023-05-29T10:53:23;8.67;;;6.93;;
56517;SDS011;42419;48.760;2.322;2023-05-29T10:55:51;7.07;;;6.37;;
56517;SDS011;42419;48.760;2.322;2023-05-29T10:58:26;8.27;;;6.33;;
56517;SDS011;42419;48.760;2.322;2023-05-29T11:00:52;6.20;;;5.60;;
56517;SDS011;42419;48.760;2.322;2023-05-29T11:03:21;8.87;;;6.73;;
56517;SDS011;42419;48.760;2.322;2023-05-29T11:06:01;7.53;;;5.83;;
56517;SDS011;42419;48.760;2.322;2023-05-29T11:08:46;7.60;;;6.17;;
56517;SDS011;42419;48.760;2.322;2023-05-29T11:11:13;7.60;;;6.93;;
56517;SDS011;42419;48.760;2.322;2023-05-29T11:13:54;7.63;;;6.93;;
56517;SDS011;42419;48.760;2.322;2023-05-29T11:18:50;8.50;;;7.40;;
56517;SDS011;42419;48.760;2.322;2023-05-29T11:24:21;8.57;;;7.07;;
56517;SDS011;42419;48.760;2.322;2023-05-29T11:26:48;7.47;;;6.27;;
56517;SDS011;42419;48.760;2.322;2023-05-29T11:29:20;8.30;;;7.50;;
56517;SDS011;42419;48.760;2.322;2023-05-29T11:32:12;8.10;;;7.30;;
56517;SDS011;42419;48.760;2.322;2023-05-29T11:34:39;7.80;;;7.10;;
56517;SDS011;42419;48.760;2.322;2023-05-29T11:37:06;8.20;;;7.40;;
56517;SDS011;42419;48.760;2.322;2023-05-29T11:39:35;7.83;;;7.10;;
56517;SDS011;42419;48.760;2.322;2023-05-29T11:42:01;8.60;;;7.70;;
56517;SDS011;42419;48.760;2.322;2023-05-29T11:44:30;8.53;;;7.70;;
56517;SDS011;42419;48.760;2.322;2023-05-29T11:47:05;8.03;;;7.33;;
56517;SDS011;42419;48.760;2.322;2023-05-29T11:49:32;8.57;;;7.77;;
56517;SDS011;42419;48.760;2.322;2023-05-29T11:52:15;12.20;;;8.00;;
56517;SDS011;42419;48.760;2.322;2023-05-29T11:54:42;8.63;;;7.73;;
56517;SDS011;42419;48.760;2.322;2023-05-29T11:57:18;8.47;;;7.20;;
56517;SDS011;42419;48.760;2.322;2023-05-29T11:59:44;9.87;;;6.80;;
56517;SDS011;42419;48.760;2.322;2023-05-29T12:02:10;7.60;;;6.87;;
56517;SDS011;42419;48.760;2.322;2023-05-29T12:04:36;8.37;;;7.50;;
56517;SDS011;42419;48.760;2.322;2023-05-29T12:07:01;8.33;;;7.40;;
56517;SDS011;42419;48.760;2.322;2023-05-29T12:09:27;8.63;;;7.10;;
56517;SDS011;42419;48.760;2.322;2023-05-29T12:12:03;8.13;;;7.33;;
56517;SDS011;42419;48.760;2.322;2023-05-29T12:14:29;7.40;;;6.67;;
56517;SDS011;42419;48.760;2.322;2023-05-29T12:16:54;8.73;;;7.20;;
56517;SDS011;42419;48.760;2.322;2023-05-29T12:19:20;8.60;;;6.63;;
56517;SDS011;42419;48.760;2.322;2023-05-29T12:21:45;7.10;;;5.97;;
56517;SDS011;42419;48.760;2.322;2023-05-29T12:24:11;7.60;;;6.80;;
56517;SDS011;42419;48.760;2.322;2023-05-29T12:26:36;6.37;;;5.83;;
56517;SDS011;42419;48.760;2.322;2023-05-29T12:29:03;8.60;;;6.83;;
56517;SDS011;42419;48.760;2.322;2023-05-29T12:31:30;7.10;;;6.40;;
56517;SDS011;42419;48.760;2.322;2023-05-29T12:33:59;7.50;;;6.30;;
56517;SDS011;42419;48.760;2.322;2023-05-29T12:36:39;7.63;;;5.80;;
56517;SDS011;42419;48.760;2.322;2023-05-29T12:39:06;7.63;;;6.73;;
56517;SDS011;42419;48.760;2.322;2023-05-29T12:41:44;7.90;;;7.10;;
56517;SDS011;42419;48.760;2.322;2023-05-29T12:44:09;6.00;;;5.20;;
56517;SDS011;42419;48.760;2.322;2023-05-29T12:46:35;7.83;;;6.00;;
56517;SDS011;42419;48.760;2.322;2023-05-29T12:49:13;8.00;;;6.60;;
56517;SDS011;42419;48.760;2.322;2023-05-29T12:51:44;8.03;;;6.03;;
56517;SDS011;42419;48.760;2.322;2023-05-29T12:54:11;5.47;;;4.83;;
56517;SDS011;42419;48.760;2.322;2023-05-29T12:56:37;6.30;;;5.70;;
56517;SDS011;42419;48.760;2.322;2023-05-29T12:59:05;6.57;;;5.90;;
56517;SDS011;42419;48.760;2.322;2023-05-29T13:01:32;7.63;;;5.00;;
56517;SDS011;42419;48.760;2.322;2023-05-29T13:03:57;6.43;;;5.83;;
56517;SDS011;42419;48.760;2.322;2023-05-29T13:06:23;7.53;;;5.27;;
56517;SDS011;42419;48.760;2.322;2023-05-29T13:08:48;7.97;;;5.20;;
56517;SDS011;42419;48.760;2.322;2023-05-29T13:11:13;6.77;;;5.10;;
56517;SDS011;42419;48.760;2.322;2023-05-29T13:13:39;6.57;;;5.50;;
56517;SDS011;42419;48.760;2.322;2023-05-29T13:16:04;5.80;;;4.40;;
56517;SDS011;42419;48.760;2.322;2023-05-29T13:18:30;6.00;;;4.80;;
56517;SDS011;42419;48.760;2.322;2023-05-29T13:20:55;6.40;;;4.80;;
56517;SDS011;42419;48.760;2.322;2023-05-29T13:23:21;9.63;;;5.33;;
56517;SDS011;42419;48.760;2.322;2023-05-29T13:25:46;7.00;;;5.23;;
56517;SDS011;42419;48.760;2.322;2023-05-29T13:28:14;4.70;;;4.00;;
56517;SDS011;42419;48.760;2.322;2023-05-29T13:30:39;7.00;;;4.57;;
56517;SDS011;42419;48.760;2.322;2023-05-29T13:33:05;5.80;;;4.70;;
56517;SDS011;42419;48.760;2.322;2023-05-29T13:35:30;4.90;;;4.40;;
56517;SDS011;42419;48.760;2.322;2023-05-29T13:37:55;4.73;;;4.03;;
56517;SDS011;42419;48.760;2.322;2023-05-29T13:40:21;4.97;;;4.47;;
56517;SDS011;42419;48.760;2.322;2023-05-29T13:42:46;8.30;;;4.70;;
56517;SDS011;42419;48.760;2.322;2023-05-29T13:45:11;4.40;;;4.03;;
56517;SDS011;42419;48.760;2.322;2023-05-29T13:47:37;4.63;;;4.03;;
56517;SDS011;42419;48.760;2.322;2023-05-29T13:50:03;7.27;;;4.20;;
56517;SDS011;42419;48.760;2.322;2023-05-29T13:52:29;4.97;;;3.53;;
56517;SDS011;42419;48.760;2.322;2023-05-29T13:54:54;7.20;;;4.00;;
56517;SDS011;42419;48.760;2.322;2023-05-29T13:57:19;5.77;;;4.33;;
56517;SDS011;42419;48.760;2.322;2023-05-29T13:59:45;5.33;;;4.07;;
56517;SDS011;42419;48.760;2.322;2023-05-29T14:02:10;7.53;;;4.23;;
56517;SDS011;42419;48.760;2.322;2023-05-29T14:04:36;6.67;;;4.40;;
56517;SDS011;42419;48.760;2.322;2023-05-29T14:07:03;4.13;;;3.73;;
56517;SDS011;42419;48.760;2.322;2023-05-29T14:09:28;5.80;;;3.80;;
56517;SDS011;42419;48.760;2.322;2023-05-29T14:11:54;4.93;;;4.43;;
56517;SDS011;42419;48.760;2.322;2023-05-29T14:14:21;5.07;;;4.20;;
56517;SDS011;42419;48.760;2.322;2023-05-29T14:16:47;4.97;;;4.47;;
56517;SDS011;42419;48.760;2.322;2023-05-29T14:19:13;4.47;;;4.07;;
56517;SDS011;42419;48.760;2.322;2023-05-29T14:21:38;5.17;;;3.80;;
56517;SDS011;42419;48.760;2.322;2023-05-29T14:24:04;7.30;;;4.80;;
56517;SDS011;42419;48.760;2.322;2023-05-29T14:26:29;4.80;;;3.80;;
56517;SDS011;42419;48.760;2.322;2023-05-29T14:28:54;4.97;;;3.67;;
56517;SDS011;42419;48.760;2.322;2023-05-29T14:31:21;5.67;;;3.70;;
56517;SDS011;42419;48.760;2.322;2023-05-29T14:33:46;4.23;;;3.60;;
56517;SDS011;42419;48.760;2.322;2023-05-29T14:36:11;4.67;;;3.40;;
56517;SDS011;42419;48.760;2.322;2023-05-29T14:38:38;5.50;;;3.87;;
56517;SDS011;42419;48.760;2.322;2023-05-29T14:41:03;8.50;;;3.83;;
56517;SDS011;42419;48.760;2.322;2023-05-29T14:43:29;7.00;;;3.83;;
56517;SDS011;42419;48.760;2.322;2023-05-29T14:45:54;5.67;;;4.07;;
56517;SDS011;42419;48.760;2.322;2023-05-29T14:48:19;8.13;;;4.07;;
56517;SDS011;42419;48.760;2.322;2023-05-29T14:50:46;4.67;;;3.30;;
56517;SDS011;42419;48.760;2.322;2023-05-29T14:53:11;5.07;;;3.37;;
56517;SDS011;42419;48.760;2.322;2023-05-29T14:55:37;4.77;;;3.67;;
56517;SDS011;42419;48.760;2.322;2023-05-29T14:58:02;3.93;;;3.30;;
56517;SDS011;42419;48.760;2.322;2023-05-29T15:00:31;4.83;;;3.33;;
56517;SDS011;42419;48.760;2.322;2023-05-29T15:02:57;3.90;;;3.50;;
56517;SDS011;42419;48.760;2.322;2023-05-29T15:05:27;4.33;;;3.37;;
56517;SDS011;42419;48.760;2.322;2023-05-29T15:07:55;3.90;;;3.47;;
56517;SDS011;42419;48.760;2.322;2023-05-29T15:10:22;5.23;;;3.33;;
56517;SDS011;42419;48.760;2.322;2023-05-29T15:12:49;3.90;;;3.10;;
56517;SDS011;42419;48.760;2.322;2023-05-29T15:15:15;4.10;;;3.10;;
56517;SDS011;42419;48.760;2.322;2023-05-29T15:17:40;5.63;;;3.97;;